Time;durP1;ratioP1;P1;durP2;ratioP2;P2;SDS_P1;SDS_P2;PMS_P1;PMS_P2;Temp;Humidity;BMP_temperature;BMP_pressure;BME280_temperature;BME280_humidity;BME280_pressure;Samples;Min_cycle;Max_cycle;Signal;HPM_P1;HPM_P2
2023/10/30 00:00:09;;;;;;;1.60;1.17;;;12.00;98.20;;;;;;5004575;28;20489;-86
2023/10/30 00:02:37;;;;;;;1.60;1.10;;;12.00;98.20;;;;;;5012880;28;21509;-86
2023/10/30 00:05:06;;;;;;;1.60;1.10;;;12.00;98.20;;;;;;5010711;28;20484;-86
2023/10/30 00:07:33;;;;;;;1.60;1.00;;;12.00;98.20;;;;;;5013460;28;20475;-87
2023/10/30 00:10:00;;;;;;;1.60;1.10;;;12.00;98.20;;;;;;5007220;28;20817;-85
2023/10/30 00:12:27;;;;;;;1.60;1.00;;;12.00;98.20;;;;;;5013620;28;20483;-87
2023/10/30 00:14:54;;;;;;;1.60;1.10;;;12.00;98.20;;;;;;5006976;28;20492;-86
2023/10/30 00:17:21;;;;;;;1.57;1.00;;;12.00;98.20;;;;;;5011368;28;21227;-85
2023/10/30 00:19:50;;;;;;;2.90;2.60;;;12.00;98.20;;;;;;5009321;28;20479;-84
2023/10/30 00:22:16;;;;;;;1.60;1.10;;;12.00;98.20;;;;;;5004624;28;20476;-83
2023/10/30 00:24:43;;;;;;;1.60;1.13;;;12.10;98.20;;;;;;5014508;28;20866;-87
2023/10/30 00:27:10;;;;;;;1.57;1.00;;;12.00;98.20;;;;;;5007680;28;20490;-84
2023/10/30 00:29:40;;;;;;;1.60;1.10;;;12.10;98.20;;;;;;5015871;28;20568;-83
2023/10/30 00:32:07;;;;;;;1.60;1.10;;;12.10;98.20;;;;;;4994233;28;21107;-84
2023/10/30 00:34:34;;;;;;;1.60;1.10;;;12.10;98.20;;;;;;5020596;28;21063;-83
2023/10/30 00:37:03;;;;;;;1.60;1.20;;;12.10;98.20;;;;;;5003803;28;20478;-84
2023/10/30 00:39:32;;;;;;;4.00;3.73;;;12.10;98.20;;;;;;5017706;28;20489;-84
2023/10/30 00:41:59;;;;;;;1.60;1.20;;;12.10;98.20;;;;;;5004127;28;20495;-84
2023/10/30 00:44:26;;;;;;;1.60;1.10;;;12.10;98.20;;;;;;5016720;28;20680;-84
2023/10/30 00:46:53;;;;;;;1.60;1.10;;;12.10;98.20;;;;;;5003015;28;20483;-84
2023/10/30 00:49:19;;;;;;;1.60;1.10;;;12.10;98.20;;;;;;5016891;28;20481;-83
2023/10/30 00:51:46;;;;;;;1.60;1.10;;;12.10;98.20;;;;;;4993059;28;20480;-84
2023/10/30 00:54:14;;;;;;;1.57;1.10;;;12.10;98.20;;;;;;5002836;28;20500;-83
2023/10/30 00:56:41;;;;;;;1.57;1.03;;;12.10;98.20;;;;;;5000979;28;20745;-81
2023/10/30 00:59:08;;;;;;;1.60;1.10;;;12.10;98.20;;;;;;5014958;28;20563;-84
2023/10/30 01:01:35;;;;;;;1.57;1.10;;;12.10;98.20;;;;;;5000142;28;20496;-83
2023/10/30 01:04:01;;;;;;;1.60;1.10;;;12.10;98.20;;;;;;5019530;28;20461;-84
2023/10/30 01:06:28;;;;;;;1.53;1.03;;;12.10;98.20;;;;;;4998951;28;20506;-84
2023/10/30 01:08:55;;;;;;;1.60;1.10;;;12.20;98.20;;;;;;5024979;28;20674;-83
2023/10/30 01:11:23;;;;;;;1.60;1.20;;;12.20;98.20;;;;;;4999615;28;20484;-84
2023/10/30 01:13:50;;;;;;;1.60;1.07;;;12.20;98.20;;;;;;5017839;28;20488;-83
2023/10/30 01:16:16;;;;;;;1.70;1.40;;;12.20;98.20;;;;;;5000684;28;20476;-85
2023/10/30 01:18:43;;;;;;;1.53;1.10;;;12.20;98.20;;;;;;5025803;28;20464;-84
2023/10/30 01:21:09;;;;;;;1.57;1.00;;;12.20;98.20;;;;;;4989775;28;20592;-82
2023/10/30 01:23:36;;;;;;;1.60;1.10;;;12.20;98.20;;;;;;5012990;28;20470;-84
2023/10/30 01:26:03;;;;;;;1.57;1.00;;;12.20;98.20;;;;;;4989803;28;20471;-85
2023/10/30 01:28:31;;;;;;;1.57;1.10;;;12.20;98.20;;;;;;5014923;28;20958;-84
2023/10/30 01:30:58;;;;;;;1.53;1.10;;;12.20;98.20;;;;;;4984841;28;20491;-85
2023/10/30 01:33:25;;;;;;;1.60;1.10;;;12.20;98.20;;;;;;5007914;22;20742;-82
2023/10/30 01:35:52;;;;;;;2.17;1.97;;;12.20;98.20;;;;;;4979169;28;20504;-83
2023/10/30 01:38:18;;;;;;;1.57;1.07;;;12.20;98.20;;;;;;4994919;28;20509;-82
2023/10/30 01:40:49;;;;;;;1.60;1.10;;;12.20;98.20;;;;;;4983192;28;20854;-83
2023/10/30 01:43:15;;;;;;;1.60;1.20;;;12.20;98.20;;;;;;4988599;28;20598;-82
2023/10/30 01:45:43;;;;;;;1.60;1.10;;;12.20;98.20;;;;;;4983821;28;20956;-83
2023/10/30 01:48:11;;;;;;;1.57;1.00;;;12.20;98.20;;;;;;4999739;28;20477;-82
2023/10/30 01:50:38;;;;;;;1.53;1.00;;;12.20;98.20;;;;;;4977754;28;20481;-82
2023/10/30 01:53:05;;;;;;;1.57;1.00;;;12.20;98.20;;;;;;4984317;28;20778;-82
2023/10/30 01:55:32;;;;;;;1.60;1.10;;;12.20;98.20;;;;;;4985933;28;20849;-82
2023/10/30 01:57:59;;;;;;;1.60;1.10;;;12.20;98.20;;;;;;5001123;28;20495;-82
2023/10/30 02:00:26;;;;;;;1.60;1.10;;;12.20;98.20;;;;;;4991106;28;20524;-81
2023/10/30 02:02:57;;;;;;;1.53;1.00;;;12.10;98.20;;;;;;4990077;28;21038;-79
2023/10/30 02:05:24;;;;;;;1.60;1.00;;;12.10;98.20;;;;;;4981842;28;20497;-79
2023/10/30 02:07:51;;;;;;;1.60;1.10;;;12.20;98.20;;;;;;5004012;28;20497;-80
2023/10/30 02:10:18;;;;;;;1.53;1.07;;;12.20;98.20;;;;;;4997869;28;20967;-80
2023/10/30 02:12:49;;;;;;;1.57;1.10;;;12.20;98.20;;;;;;4998993;28;20472;-81
2023/10/30 02:15:16;;;;;;;1.57;1.03;;;12.20;98.20;;;;;;4998179;28;20489;-79
2023/10/30 02:17:43;;;;;;;1.53;1.10;;;12.30;98.20;;;;;;5003454;28;20492;-81
2023/10/30 02:20:12;;;;;;;1.60;1.20;;;12.30;98.20;;;;;;4999208;28;20492;-79
2023/10/30 02:22:39;;;;;;;1.60;1.10;;;12.30;98.20;;;;;;5003383;28;20560;-80
2023/10/30 02:25:07;;;;;;;1.60;1.00;;;12.30;98.20;;;;;;4982754;28;20553;-80
2023/10/30 02:27:35;;;;;;;1.60;1.10;;;12.40;98.20;;;;;;4985466;28;20491;-80
2023/10/30 02:30:02;;;;;;;1.60;1.10;;;12.40;98.20;;;;;;4990817;28;20477;-79
2023/10/30 02:32:28;;;;;;;1.60;1.10;;;12.50;98.20;;;;;;4990697;28;20480;-80
2023/10/30 02:34:55;;;;;;;1.60;1.10;;;12.50;98.20;;;;;;4990975;28;20476;-80
2023/10/30 02:37:22;;;;;;;1.57;1.00;;;12.50;98.20;;;;;;4997409;28;20480;-80
2023/10/30 02:39:48;;;;;;;1.60;1.10;;;12.50;98.20;;;;;;4996689;28;20464;-80
2023/10/30 02:42:15;;;;;;;1.50;1.00;;;12.60;98.20;;;;;;4983787;28;20485;-80
2023/10/30 02:44:43;;;;;;;1.60;1.10;;;12.60;98.20;;;;;;4996240;28;20457;-79
2023/10/30 02:47:10;;;;;;;1.60;1.10;;;12.60;98.20;;;;;;5003187;28;20486;-80
2023/10/30 02:49:38;;;;;;;1.53;1.00;;;12.60;98.20;;;;;;4985744;28;20473;-80
2023/10/30 02:52:05;;;;;;;1.60;1.00;;;12.60;98.20;;;;;;4997264;28;20480;-80
2023/10/30 02:54:32;;;;;;;1.60;1.10;;;12.60;98.20;;;;;;5004001;28;20489;-80
2023/10/30 02:57:00;;;;;;;1.60;1.10;;;12.60;98.20;;;;;;4994430;28;20472;-80
2023/10/30 02:59:27;;;;;;;1.60;1.20;;;12.60;98.20;;;;;;5002040;28;20461;-80
2023/10/30 03:01:55;;;;;;;1.60;1.00;;;12.60;98.20;;;;;;4991736;28;20493;-80
2023/10/30 03:04:23;;;;;;;1.60;1.17;;;12.60;98.20;;;;;;5004851;28;20461;-80
2023/10/30 03:06:50;;;;;;;1.57;1.07;;;12.60;98.20;;;;;;4994924;28;21088;-80
2023/10/30 03:09:16;;;;;;;1.57;1.00;;;12.60;98.20;;;;;;5007793;28;20469;-80
2023/10/30 03:11:43;;;;;;;1.60;1.10;;;12.60;98.20;;;;;;4989925;28;20992;-80
2023/10/30 03:14:10;;;;;;;1.60;1.10;;;12.70;98.20;;;;;;4998255;28;20517;-80
2023/10/30 03:16:37;;;;;;;1.60;1.00;;;12.70;98.20;;;;;;4990916;28;20567;-80
2023/10/30 03:19:05;;;;;;;1.60;1.10;;;12.60;98.20;;;;;;5006384;28;20461;-80
2023/10/30 03:21:32;;;;;;;1.60;1.10;;;12.60;98.20;;;;;;4996444;28;20476;-80
2023/10/30 03:23:58;;;;;;;1.60;1.00;;;12.60;98.20;;;;;;5007537;28;20469;-80
2023/10/30 03:26:25;;;;;;;1.50;1.00;;;12.60;98.20;;;;;;4989386;28;20480;-79
2023/10/30 03:28:52;;;;;;;1.57;1.00;;;12.60;98.20;;;;;;5009976;28;20465;-81
2023/10/30 03:31:19;;;;;;;1.53;1.10;;;12.60;98.20;;;;;;4989331;28;21056;-80
2023/10/30 03:33:47;;;;;;;1.60;1.10;;;12.60;98.20;;;;;;5013616;28;20484;-81
2023/10/30 03:36:20;;;;;;;1.50;1.00;;;12.50;98.20;;;;;;4995830;28;20488;-80
2023/10/30 03:38:47;;;;;;;1.60;1.10;;;12.50;98.20;;;;;;5012196;28;20477;-81
2023/10/30 03:41:13;;;;;;;1.60;1.10;;;12.50;98.20;;;;;;4996908;28;20480;-80
2023/10/30 03:43:40;;;;;;;1.57;1.00;;;12.50;98.20;;;;;;5015817;28;20518;-81
2023/10/30 03:46:07;;;;;;;1.53;1.00;;;12.50;98.20;;;;;;4992362;28;20472;-81
2023/10/30 03:48:34;;;;;;;1.60;1.10;;;12.50;98.20;;;;;;5018982;28;20536;-80
2023/10/30 03:51:02;;;;;;;1.60;1.07;;;12.50;98.20;;;;;;4992810;28;20454;-81
2023/10/30 03:53:31;;;;;;;1.60;1.10;;;12.50;98.20;;;;;;5018482;28;20512;-81
2023/10/30 03:55:57;;;;;;;1.60;1.10;;;12.50;98.20;;;;;;4989621;28;20587;-81
2023/10/30 03:58:25;;;;;;;1.60;1.20;;;12.50;98.20;;;;;;5008735;28;20469;-79
2023/10/30 04:00:52;;;;;;;5.20;4.13;;;12.50;98.20;;;;;;4986475;28;20642;-80
2023/10/30 04:03:18;;;;;;;1.60;1.10;;;12.50;98.20;;;;;;5005331;28;20485;-80
2023/10/30 04:05:45;;;;;;;1.60;1.10;;;12.50;98.20;;;;;;4990405;28;20845;-80
2023/10/30 04:08:12;;;;;;;1.57;1.00;;;12.50;98.20;;;;;;4999225;28;20700;-80
2023/10/30 04:10:40;;;;;;;1.53;1.00;;;12.50;98.20;;;;;;4998694;28;20463;-82
2023/10/30 04:13:07;;;;;;;1.60;1.10;;;12.40;98.20;;;;;;4990131;28;20515;-80
2023/10/30 04:15:36;;;;;;;1.60;1.10;;;12.40;98.20;;;;;;5000151;28;20490;-81
2023/10/30 04:18:03;;;;;;;1.60;1.10;;;12.40;98.20;;;;;;4991333;28;20476;-81
2023/10/30 04:20:30;;;;;;;1.57;1.10;;;12.40;98.20;;;;;;4998496;28;20465;-81
2023/10/30 04:22:57;;;;;;;1.60;1.10;;;12.40;98.20;;;;;;5002316;28;20583;-81
2023/10/30 04:25:23;;;;;;;1.57;1.00;;;12.40;98.20;;;;;;4994040;28;20457;-81
2023/10/30 04:27:53;;;;;;;1.60;1.00;;;12.40;98.20;;;;;;5003272;28;20606;-82
2023/10/30 04:30:20;;;;;;;1.57;1.10;;;12.40;98.20;;;;;;4994511;28;20464;-80
2023/10/30 04:32:47;;;;;;;1.60;1.10;;;12.40;98.20;;;;;;4995382;28;20538;-82
2023/10/30 04:35:14;;;;;;;1.60;1.10;;;12.40;98.20;;;;;;4987827;28;20832;-80
2023/10/30 04:37:40;;;;;;;1.60;1.00;;;12.40;98.20;;;;;;4985805;28;20880;-81
2023/10/30 04:40:09;;;;;;;1.57;1.10;;;12.40;98.20;;;;;;5001826;28;20472;-81
2023/10/30 04:42:35;;;;;;;1.60;1.00;;;12.40;98.20;;;;;;5005298;28;21009;-80
2023/10/30 04:45:04;;;;;;;1.53;1.00;;;12.40;98.20;;;;;;5002373;28;20463;-81
2023/10/30 04:47:31;;;;;;;1.57;1.00;;;12.50;98.20;;;;;;5000437;28;21018;-81
2023/10/30 04:49:57;;;;;;;1.53;1.00;;;12.50;98.20;;;;;;5001695;28;20467;-80
2023/10/30 04:52:25;;;;;;;1.57;1.00;;;12.50;98.20;;;;;;5004249;28;20512;-81
2023/10/30 04:54:52;;;;;;;1.53;1.00;;;12.50;98.20;;;;;;5005095;28;20528;-81
2023/10/30 04:57:19;;;;;;;1.57;1.00;;;12.50;98.20;;;;;;4998658;28;20511;-81
2023/10/30 04:59:45;;;;;;;1.60;1.00;;;12.50;98.20;;;;;;5005410;28;20479;-81
2023/10/30 05:02:13;;;;;;;1.60;1.10;;;12.60;98.20;;;;;;4999536;28;20487;-80
2023/10/30 05:04:40;;;;;;;1.50;1.00;;;12.60;98.20;;;;;;4994384;28;20465;-80
2023/10/30 05:07:07;;;;;;;1.60;1.10;;;12.60;98.20;;;;;;4986140;28;20818;-80
2023/10/30 05:09:33;;;;;;;1.70;1.30;;;12.60;98.20;;;;;;5000760;28;20477;-82
2023/10/30 05:12:01;;;;;;;1.57;1.00;;;12.60;98.20;;;;;;5001300;28;20502;-80
2023/10/30 05:14:28;;;;;;;1.57;1.03;;;12.60;98.20;;;;;;5005571;28;20910;-81
2023/10/30 05:16:55;;;;;;;2.03;1.83;;;12.60;98.20;;;;;;4995473;28;20479;-81
2023/10/30 05:19:23;;;;;;;1.57;1.00;;;12.60;98.20;;;;;;5002063;28;20466;-80
2023/10/30 05:21:50;;;;;;;1.57;1.00;;;12.60;98.20;;;;;;4993779;28;20525;-80
2023/10/30 05:24:16;;;;;;;1.60;1.00;;;12.60;98.20;;;;;;5005570;28;20461;-80
2023/10/30 05:26:44;;;;;;;1.60;1.00;;;12.60;98.20;;;;;;4994095;28;20486;-80
2023/10/30 05:29:11;;;;;;;1.53;1.00;;;12.60;98.20;;;;;;4984151;28;20471;-79
2023/10/30 05:31:38;;;;;;;1.60;1.10;;;12.60;98.20;;;;;;4975554;28;20485;-79
2023/10/30 05:34:05;;;;;;;1.53;1.00;;;12.60;98.20;;;;;;4984768;28;20472;-79
2023/10/30 05:36:33;;;;;;;1.60;1.10;;;12.60;98.20;;;;;;4974314;28;20594;-79
2023/10/30 05:38:59;;;;;;;1.60;1.10;;;12.60;98.20;;;;;;4978879;28;20466;-79
2023/10/30 05:41:26;;;;;;;1.57;1.00;;;12.60;98.20;;;;;;4968868;28;20911;-79
2023/10/30 05:43:53;;;;;;;1.60;1.10;;;12.70;98.20;;;;;;4982453;28;20468;-80
2023/10/30 05:46:20;;;;;;;1.50;1.00;;;12.70;98.20;;;;;;4970187;28;20481;-79
2023/10/30 05:48:47;;;;;;;1.60;1.00;;;12.70;98.20;;;;;;4978633;28;20512;-79
2023/10/30 05:51:14;;;;;;;1.60;1.10;;;12.70;98.20;;;;;;4980943;28;20567;-79
2023/10/30 05:53:43;;;;;;;1.53;1.00;;;12.70;98.20;;;;;;4991417;28;20481;-80
2023/10/30 05:56:09;;;;;;;1.53;1.00;;;12.70;98.20;;;;;;4970982;28;20613;-80
2023/10/30 05:58:36;;;;;;;1.53;1.00;;;12.70;98.20;;;;;;4971878;28;20474;-80
2023/10/30 06:01:04;;;;;;;1.53;1.00;;;12.70;98.20;;;;;;4969848;28;20839;-80
2023/10/30 06:03:31;;;;;;;1.60;1.10;;;12.70;98.20;;;;;;4986362;28;20490;-80
2023/10/30 06:05:58;;;;;;;1.57;1.03;;;12.70;98.20;;;;;;4966295;28;20468;-81
2023/10/30 06:08:24;;;;;;;1.50;1.00;;;12.70;98.20;;;;;;4979068;28;20477;-80
2023/10/30 06:10:52;;;;;;;1.60;1.00;;;12.70;98.20;;;;;;4964405;28;20474;-81
2023/10/30 06:13:19;;;;;;;1.60;1.00;;;12.70;98.20;;;;;;4971270;28;20478;-80
2023/10/30 06:15:46;;;;;;;1.60;1.10;;;12.70;98.20;;;;;;4974831;28;20576;-81
2023/10/30 06:18:13;;;;;;;1.60;1.10;;;12.70;98.20;;;;;;4965611;28;20493;-79
2023/10/30 06:20:40;;;;;;;1.60;1.00;;;12.70;98.20;;;;;;4976138;28;20502;-80
2023/10/30 06:23:07;;;;;;;1.60;1.00;;;12.60;98.20;;;;;;4969551;28;20489;-80
2023/10/30 06:25:38;;;;;;;1.53;1.00;;;12.60;98.20;;;;;;4977486;28;20480;-80
2023/10/30 06:28:06;;;;;;;1.60;1.20;;;12.60;98.20;;;;;;4977485;28;20480;-80
2023/10/30 06:30:33;;;;;;;1.60;1.00;;;12.60;98.20;;;;;;4972421;28;20466;-80
2023/10/30 06:32:59;;;;;;;1.60;1.00;;;12.60;98.20;;;;;;4968445;28;20485;-80
2023/10/30 06:35:26;;;;;;;1.57;1.00;;;12.60;98.20;;;;;;4974808;28;20486;-80
2023/10/30 06:37:53;;;;;;;1.60;1.03;;;12.50;98.20;;;;;;4968486;28;20512;-81
2023/10/30 06:40:20;;;;;;;1.53;1.00;;;12.50;98.20;;;;;;4978546;28;20508;-81
2023/10/30 06:42:46;;;;;;;1.60;1.07;;;12.50;98.20;;;;;;4971254;28;20838;-81
2023/10/30 06:45:15;;;;;;;1.60;1.00;;;12.50;98.20;;;;;;4972769;28;20618;-80
2023/10/30 06:47:42;;;;;;;1.57;1.00;;;12.40;98.20;;;;;;4971456;28;20999;-81
2023/10/30 06:50:09;;;;;;;1.60;1.00;;;12.40;98.20;;;;;;4978504;28;20462;-82
2023/10/30 06:52:36;;;;;;;1.53;1.00;;;12.40;98.20;;;;;;4970379;28;20510;-82
2023/10/30 06:55:02;;;;;;;1.60;1.20;;;12.40;98.20;;;;;;4982561;28;20486;-82
2023/10/30 06:57:29;;;;;;;1.60;1.10;;;12.40;98.20;;;;;;4985569;28;20864;-81
2023/10/30 07:00:02;;;;;;;1.53;1.00;;;12.30;98.20;;;;;;4979216;28;20473;-82
2023/10/30 07:02:32;;;;;;;1.53;1.00;;;12.30;98.20;;;;;;4965615;28;20882;-81
2023/10/30 07:04:59;;;;;;;1.57;1.00;;;12.40;98.20;;;;;;4974124;28;20557;-82
2023/10/30 07:07:26;;;;;;;1.57;1.00;;;12.30;98.20;;;;;;4985560;28;20622;-81
2023/10/30 07:09:53;;;;;;;1.57;1.03;;;12.30;98.20;;;;;;4979564;28;20461;-82
2023/10/30 07:12:19;;;;;;;1.57;1.10;;;12.40;98.20;;;;;;4972900;28;20482;-81
2023/10/30 07:14:46;;;;;;;1.60;1.00;;;12.40;98.20;;;;;;4979970;28;20471;-81
2023/10/30 07:17:13;;;;;;;1.57;1.00;;;12.40;98.20;;;;;;4977071;28;20516;-81
2023/10/30 07:19:42;;;;;;;1.57;1.00;;;12.50;98.20;;;;;;4979664;28;20474;-81
2023/10/30 07:22:08;;;;;;;1.60;1.10;;;12.50;98.20;;;;;;4968474;28;20575;-83
2023/10/30 07:24:36;;;;;;;1.60;1.10;;;12.50;98.20;;;;;;4983103;28;20476;-81
2023/10/30 07:27:03;;;;;;;1.50;1.00;;;12.60;98.20;;;;;;4969529;28;20513;-81
2023/10/30 07:29:29;;;;;;;1.60;1.00;;;12.70;98.20;;;;;;4989339;28;20454;-80
2023/10/30 07:31:56;;;;;;;1.60;1.00;;;12.70;98.20;;;;;;4975552;28;20499;-81
2023/10/30 07:34:23;;;;;;;1.57;1.03;;;12.70;98.20;;;;;;4974811;28;20557;-80
2023/10/30 07:36:51;;;;;;;1.60;1.10;;;12.80;98.20;;;;;;4970095;28;21045;-82
2023/10/30 07:39:18;;;;;;;1.53;1.00;;;12.90;98.20;;;;;;4979357;28;20528;-82
2023/10/30 07:41:45;;;;;;;1.53;1.00;;;12.90;98.20;;;;;;4979463;28;20626;-82
2023/10/30 07:44:12;;;;;;;1.60;1.00;;;13.00;98.20;;;;;;4985077;28;20473;-83
2023/10/30 07:46:39;;;;;;;1.60;1.00;;;13.10;98.20;;;;;;4977006;28;20481;-80
2023/10/30 07:49:06;;;;;;;1.60;1.00;;;13.20;98.20;;;;;;4978558;28;20561;-82
2023/10/30 07:51:33;;;;;;;1.57;1.00;;;13.30;98.20;;;;;;4970187;28;20484;-81
2023/10/30 07:54:01;;;;;;;1.57;1.00;;;13.30;98.20;;;;;;4987943;28;20470;-82
2023/10/30 07:56:28;;;;;;;1.60;1.00;;;13.30;98.20;;;;;;4970132;28;20809;-82
2023/10/30 07:58:55;;;;;;;1.60;1.00;;;13.40;98.20;;;;;;4980887;28;20497;-82
2023/10/30 08:01:22;;;;;;;1.60;1.00;;;13.40;98.20;;;;;;4975449;28;20507;-81
2023/10/30 08:03:49;;;;;;;1.60;1.00;;;13.50;98.20;;;;;;4985279;28;20529;-81
2023/10/30 08:06:16;;;;;;;1.60;1.10;;;13.50;98.20;;;;;;4967147;28;20895;-82
2023/10/30 08:08:42;;;;;;;1.60;1.10;;;13.60;98.20;;;;;;4977260;28;20852;-81
2023/10/30 08:11:11;;;;;;;1.60;1.00;;;13.60;98.20;;;;;;4970077;28;20873;-80
2023/10/30 08:13:38;;;;;;;1.60;1.00;;;13.70;98.20;;;;;;4978391;28;20509;-81
2023/10/30 08:16:05;;;;;;;1.60;1.00;;;13.80;98.20;;;;;;4968802;28;20496;-81
2023/10/30 08:18:32;;;;;;;1.57;1.00;;;13.80;98.20;;;;;;4988538;28;20465;-80
2023/10/30 08:21:01;;;;;;;1.60;1.10;;;13.90;98.20;;;;;;4974382;28;20636;-80
2023/10/30 08:23:27;;;;;;;1.60;1.00;;;13.90;98.20;;;;;;4981002;28;20494;-80
2023/10/30 08:25:54;;;;;;;1.60;0.97;;;13.90;98.20;;;;;;4971435;28;20465;-80
2023/10/30 08:28:22;;;;;;;3.87;3.57;;;14.00;98.20;;;;;;4989229;28;20466;-80
2023/10/30 08:30:49;;;;;;;1.60;1.00;;;14.00;98.20;;;;;;4962753;28;20720;-80
2023/10/30 08:33:16;;;;;;;1.60;1.00;;;14.10;98.20;;;;;;4985891;28;20620;-79
2023/10/30 08:35:43;;;;;;;1.60;1.00;;;14.10;98.20;;;;;;4973030;28;20545;-79
2023/10/30 08:38:09;;;;;;;1.60;1.00;;;14.20;98.20;;;;;;4962932;28;20485;-80
2023/10/30 08:40:36;;;;;;;1.60;1.00;;;14.20;98.20;;;;;;4974543;28;20476;-79
2023/10/30 08:43:03;;;;;;;1.70;1.37;;;14.30;98.20;;;;;;4965475;28;20576;-80
2023/10/30 08:45:31;;;;;;;1.60;1.00;;;14.30;98.20;;;;;;4980438;28;20462;-81
2023/10/30 08:47:58;;;;;;;1.60;1.00;;;14.40;98.20;;;;;;4967961;28;20885;-80
2023/10/30 08:50:25;;;;;;;1.60;1.00;;;14.40;98.20;;;;;;4972908;28;20533;-80
2023/10/30 08:52:51;;;;;;;1.57;0.90;;;14.50;98.20;;;;;;4961066;28;20777;-79
2023/10/30 08:55:18;;;;;;;1.60;1.10;;;14.50;98.20;;;;;;4965353;28;20462;-80
2023/10/30 08:57:45;;;;;;;1.60;1.00;;;14.60;98.20;;;;;;4977140;28;20489;-80
2023/10/30 09:00:13;;;;;;;1.60;1.00;;;14.60;98.20;;;;;;4973414;28;20469;-81
2023/10/30 09:02:42;;;;;;;1.60;1.00;;;14.70;98.20;;;;;;4980710;28;20491;-79
2023/10/30 09:05:10;;;;;;;1.60;1.00;;;14.70;98.20;;;;;;4993497;28;20464;-80
2023/10/30 09:07:37;;;;;;;1.60;1.10;;;14.70;98.20;;;;;;4995919;28;20498;-79
2023/10/30 09:10:04;;;;;;;1.53;1.00;;;14.80;98.20;;;;;;4990726;28;20872;-79
2023/10/30 09:12:31;;;;;;;1.60;1.00;;;14.80;98.20;;;;;;4988912;28;20499;-79
2023/10/30 09:14:57;;;;;;;1.60;1.10;;;14.80;98.20;;;;;;4987312;28;20464;-80
2023/10/30 09:17:24;;;;;;;1.57;1.00;;;14.90;98.20;;;;;;4979325;28;20477;-79
2023/10/30 09:19:52;;;;;;;1.60;1.00;;;14.90;98.20;;;;;;4986261;28;20465;-79
2023/10/30 09:22:20;;;;;;;1.60;1.00;;;14.90;98.20;;;;;;4980928;28;20490;-79
2023/10/30 09:24:46;;;;;;;1.60;1.10;;;14.90;98.20;;;;;;4984799;28;20458;-79
2023/10/30 09:27:13;;;;;;;1.60;1.00;;;14.90;98.20;;;;;;4967680;28;20798;-78
2023/10/30 09:29:40;;;;;;;1.90;1.60;;;14.90;98.20;;;;;;4985404;28;20458;-78
2023/10/30 09:32:07;;;;;;;1.60;1.10;;;15.00;98.20;;;;;;4972319;28;20889;-80
2023/10/30 09:34:34;;;;;;;1.60;1.00;;;15.00;98.20;;;;;;4978578;28;20462;-80
2023/10/30 09:37:02;;;;;;;1.53;1.00;;;15.00;98.20;;;;;;4971213;28;21035;-78
2023/10/30 09:39:29;;;;;;;1.60;1.00;;;15.00;98.20;;;;;;4986074;28;20469;-79
2023/10/30 09:41:59;;;;;;;1.57;1.00;;;15.10;98.20;;;;;;4985048;28;20481;-81
2023/10/30 09:44:26;;;;;;;1.60;1.00;;;15.10;98.20;;;;;;4981000;28;20456;-78
2023/10/30 09:46:54;;;;;;;1.60;1.00;;;15.20;98.20;;;;;;4972990;28;21140;-78
2023/10/30 09:49:23;;;;;;;1.60;1.00;;;15.30;98.20;;;;;;4982376;28;20465;-78
2023/10/30 09:51:52;;;;;;;1.60;0.97;;;15.30;98.20;;;;;;4983317;28;20530;-78
2023/10/30 09:54:21;;;;;;;1.60;1.00;;;15.40;98.20;;;;;;4997273;28;20469;-79
2023/10/30 09:56:48;;;;;;;1.60;1.00;;;15.50;98.20;;;;;;4977144;28;20479;-79
2023/10/30 09:59:16;;;;;;;1.60;1.00;;;15.60;98.20;;;;;;4995307;28;20847;-79
2023/10/30 10:01:43;;;;;;;1.60;1.00;;;15.70;98.20;;;;;;4983045;28;20531;-79
2023/10/30 10:04:10;;;;;;;1.60;1.00;;;15.70;98.20;;;;;;4983427;28;20466;-79
2023/10/30 10:06:38;;;;;;;1.60;1.00;;;15.70;98.20;;;;;;4988006;28;20483;-79
2023/10/30 10:09:05;;;;;;;1.60;1.00;;;15.80;98.20;;;;;;4997524;28;20465;-78
2023/10/30 10:11:35;;;;;;;1.60;1.10;;;15.90;98.20;;;;;;4985349;28;20484;-79
2023/10/30 10:14:02;;;;;;;1.60;1.00;;;15.90;98.20;;;;;;5000660;28;20469;-79
2023/10/30 10:16:30;;;;;;;1.60;1.00;;;16.00;98.20;;;;;;4985116;28;20947;-78
2023/10/30 10:18:57;;;;;;;1.60;1.00;;;16.10;98.20;;;;;;4994343;28;20516;-78
2023/10/30 10:21:24;;;;;;;1.60;0.90;;;16.10;98.20;;;;;;4985441;28;20872;-79
2023/10/30 10:23:50;;;;;;;1.60;0.93;;;16.20;98.20;;;;;;4999059;28;20481;-80
2023/10/30 10:26:17;;;;;;;1.60;1.00;;;16.30;98.20;;;;;;4982425;28;20483;-79
2023/10/30 10:28:46;;;;;;;1.60;0.90;;;16.30;98.20;;;;;;4998883;28;20461;-78
2023/10/30 10:31:14;;;;;;;1.60;1.00;;;16.30;98.20;;;;;;4988504;28;21004;-79
2023/10/30 10:33:41;;;;;;;1.60;1.00;;;16.30;98.20;;;;;;5002626;28;20486;-78
2023/10/30 10:36:08;;;;;;;1.60;1.10;;;16.30;98.20;;;;;;4985945;28;20473;-79
2023/10/30 10:38:35;;;;;;;1.60;0.90;;;16.30;98.20;;;;;;4999770;28;20482;-79
2023/10/30 10:41:02;;;;;;;1.60;1.00;;;16.40;98.20;;;;;;4975753;28;20471;-79
2023/10/30 10:43:31;;;;;;;1.60;1.00;;;16.50;98.20;;;;;;5005297;28;20483;-79
2023/10/30 10:45:59;;;;;;;1.60;0.90;;;16.50;98.20;;;;;;4980172;28;20659;-78
2023/10/30 10:48:27;;;;;;;1.60;1.00;;;16.50;98.20;;;;;;4995956;28;20749;-79
2023/10/30 10:50:55;;;;;;;1.60;1.00;;;16.60;98.20;;;;;;4979158;28;20531;-79
2023/10/30 10:53:24;;;;;;;1.60;1.00;;;16.70;98.20;;;;;;5002754;28;20484;-78
2023/10/30 10:55:51;;;;;;;1.60;0.90;;;16.80;98.20;;;;;;4977471;28;20469;-80
2023/10/30 10:58:21;;;;;;;1.60;1.00;;;16.90;98.20;;;;;;4987280;28;20485;-80
2023/10/30 11:00:49;;;;;;;1.60;0.90;;;16.90;98.20;;;;;;4967704;28;20476;-80
2023/10/30 11:03:19;;;;;;;1.57;1.00;;;16.90;98.20;;;;;;4993735;28;20513;-79
2023/10/30 11:05:49;;;;;;;1.60;1.00;;;16.80;98.20;;;;;;4982620;28;20468;-80
2023/10/30 11:08:29;;;;;;;1.60;1.00;;;16.80;98.20;;;;;;4987363;28;20489;-80
2023/10/30 11:11:02;;;;;;;1.60;1.00;;;16.80;98.20;;;;;;4964533;28;20476;-79
2023/10/30 11:13:38;;;;;;;1.60;0.90;;;16.90;98.20;;;;;;4977388;28;21030;-79
2023/10/30 11:16:10;;;;;;;1.60;1.00;;;16.80;98.20;;;;;;4968108;28;20839;-80
2023/10/30 11:18:39;;;;;;;1.60;1.00;;;16.80;98.20;;;;;;4975913;28;20496;-80
2023/10/30 11:21:10;;;;;;;1.53;1.00;;;16.70;98.20;;;;;;4966078;28;20481;-80
2023/10/30 11:23:56;;;;;;;1.60;1.00;;;16.60;98.20;;;;;;4980910;28;20495;-79
2023/10/30 11:26:39;;;;;;;1.60;1.00;;;16.50;98.20;;;;;;4967335;28;20791;-79
2023/10/30 11:29:10;;;;;;;1.73;1.50;;;16.40;98.20;;;;;;4973970;28;20462;-80
2023/10/30 11:32:02;;;;;;;1.60;0.90;;;16.40;98.20;;;;;;4967916;28;20597;-79
2023/10/30 11:34:32;;;;;;;1.60;1.00;;;16.30;98.20;;;;;;4974072;28;20501;-79
2023/10/30 11:37:15;;;;;;;1.60;1.00;;;16.20;98.20;;;;;;4973168;28;20492;-80
2023/10/30 11:39:43;;;;;;;1.60;1.00;;;16.10;98.20;;;;;;4971522;28;20851;-81
2023/10/30 11:42:33;;;;;;;1.60;1.00;;;16.00;98.20;;;;;;4980887;28;20483;-80
2023/10/30 11:45:23;;;;;;;1.60;1.00;;;15.90;98.20;;;;;;4979709;28;20554;-81
2023/10/30 11:47:56;;;;;;;1.60;1.00;;;15.90;98.20;;;;;;4973440;28;21035;-81
2023/10/30 11:50:27;;;;;;;1.57;1.00;;;15.80;98.20;;;;;;4977461;28;20892;-80
2023/10/30 11:52:55;;;;;;;1.60;1.00;;;15.70;98.20;;;;;;4970648;28;20485;-80
2023/10/30 11:55:23;;;;;;;1.60;1.00;;;15.70;98.20;;;;;;4972209;28;20525;-80
2023/10/30 11:57:50;;;;;;;1.60;1.10;;;15.70;98.20;;;;;;4977932;28;20492;-80
2023/10/30 12:00:18;;;;;;;1.60;1.00;;;15.80;98.20;;;;;;4975634;28;20855;-80
2023/10/30 12:02:46;;;;;;;1.60;1.00;;;15.90;98.20;;;;;;4978936;28;20898;-80
2023/10/30 12:05:12;;;;;;;1.60;1.10;;;16.00;98.20;;;;;;4972933;28;20473;-80
2023/10/30 12:07:40;;;;;;;1.60;1.10;;;16.10;98.20;;;;;;4978235;28;20489;-80
2023/10/30 12:10:08;;;;;;;1.57;0.93;;;16.20;98.20;;;;;;4975617;28;20481;-80
2023/10/30 12:12:35;;;;;;;1.53;1.00;;;16.30;98.20;;;;;;4978833;28;20517;-80
2023/10/30 12:15:03;;;;;;;1.60;1.00;;;16.30;98.20;;;;;;4973184;28;20461;-81
2023/10/30 12:17:30;;;;;;;1.57;0.90;;;16.30;98.20;;;;;;4975622;28;20474;-80
2023/10/30 12:19:57;;;;;;;1.60;1.10;;;16.40;98.20;;;;;;4976573;28;20472;-79
2023/10/30 12:22:24;;;;;;;1.60;1.00;;;16.40;98.20;;;;;;4972529;28;20562;-80
2023/10/30 12:24:52;;;;;;;1.60;1.10;;;16.40;98.20;;;;;;4976686;28;20469;-80
2023/10/30 12:27:22;;;;;;;1.57;1.00;;;16.40;98.20;;;;;;4974062;28;20532;-80
2023/10/30 12:29:53;;;;;;;1.60;1.00;;;16.50;98.20;;;;;;4975626;28;20479;-79
2023/10/30 12:32:20;;;;;;;1.60;1.00;;;16.50;98.20;;;;;;4971873;28;20484;-80
2023/10/30 12:34:47;;;;;;;1.53;0.97;;;16.60;98.20;;;;;;4976961;28;21003;-80
2023/10/30 12:37:23;;;;;;;1.60;1.00;;;16.60;98.20;;;;;;4959942;28;20498;-80
2023/10/30 12:40:07;;;;;;;1.57;1.00;;;16.60;98.20;;;;;;4970659;28;20473;-79
2023/10/30 12:42:35;;;;;;;1.57;0.93;;;16.60;98.20;;;;;;4974601;28;20480;-79
2023/10/30 12:45:05;;;;;;;1.60;1.00;;;16.60;98.20;;;;;;4969072;28;20566;-79
2023/10/30 12:47:31;;;;;;;1.60;1.00;;;16.60;98.20;;;;;;4973769;28;20473;-80
2023/10/30 12:49:58;;;;;;;1.60;1.00;;;16.60;98.20;;;;;;4974839;28;20461;-80